Holly Hills, Indiana
Current Conditions -  °F | °C
As of 1:53 AM on Monday 24 Nov 2014 (Local Time) from KHUF Reporting Station
Overcast Overcast  
Wind Chill: 55°   Ceiling: 600
Heat Index: 55°   Visibility: 10mi
Dew Point: 53°   Wind: 15mph
Humidity: 93%   Direction: 220°SW
Pressure: 29.23"   Gusts: NA
Location:  39.3587°N, 87.4056°W
Report Text: KHUF 240653Z 22013KT 10SM OVC006 13/12 A2923 RMK AO2 RAB0556E47 SLP897 P0001 T01280117 $
Loading
Personal Weather Stations






























Interactive Weather Map New forecast layout! Learn more

10-Day Weather Forecast

Advertisements
Track Severe Weather on mobile